sensor_id;sensor_type;location;lat;lon;timestamp;pressure;altitude;pressure_sealevel;temperature;humidity
68656;BME280;55638;51.122;13.606;2023-04-20T00:00:31;100484.06;;;4.29;62.24
68656;BME280;55638;51.122;13.606;2023-04-20T00:02:03;100481.41;;;4.29;62.35
68656;BME280;55638;51.122;13.606;2023-04-20T00:03:35;100481.50;;;4.27;62.52
68656;BME280;55638;51.122;13.606;2023-04-20T00:05:09;100481.50;;;4.27;62.51
68656;BME280;55638;51.122;13.606;2023-04-20T00:06:41;100474.44;;;4.26;62.49
68656;BME280;55638;51.122;13.606;2023-04-20T00:08:15;100483.22;;;4.28;62.49
68656;BME280;55638;51.122;13.606;2023-04-20T00:09:48;100476.16;;;4.27;62.48
68656;BME280;55638;51.122;13.606;2023-04-20T00:11:20;100476.16;;;4.27;62.27
68656;BME280;55638;51.122;13.606;2023-04-20T00:12:52;100478.84;;;4.27;62.41
68656;BME280;55638;51.122;13.606;2023-04-20T00:14:23;100466.34;;;4.28;62.34
68656;BME280;55638;51.122;13.606;2023-04-20T00:15:55;100471.78;;;4.26;62.23
68656;BME280;55638;51.122;13.606;2023-04-20T00:17:28;100465.50;;;4.27;62.29
68656;BME280;55638;51.122;13.606;2023-04-20T00:18:59;100469.97;;;4.27;62.14
68656;BME280;55638;51.122;13.606;2023-04-20T00:20:31;100465.56;;;4.26;62.46
68656;BME280;55638;51.122;13.606;2023-04-20T00:22:04;100473.56;;;4.26;62.29
68656;BME280;55638;51.122;13.606;2023-04-20T00:23:35;100468.31;;;4.24;62.36
68656;BME280;55638;51.122;13.606;2023-04-20T00:25:08;100462.13;;;4.24;62.23
68656;BME280;55638;51.122;13.606;2023-04-20T00:26:40;100467.47;;;4.24;62.31
68656;BME280;55638;51.122;13.606;2023-04-20T00:28:11;100463.94;;;4.23;62.50
68656;BME280;55638;51.122;13.606;2023-04-20T00:29:44;100468.47;;;4.21;62.34
68656;BME280;55638;51.122;13.606;2023-04-20T00:31:17;100468.47;;;4.21;62.48
68656;BME280;55638;51.122;13.606;2023-04-20T00:32:50;100461.44;;;4.20;62.47
68656;BME280;55638;51.122;13.606;2023-04-20T00:34:22;100467.69;;;4.19;62.39
68656;BME280;55638;51.122;13.606;2023-04-20T00:35:54;100471.31;;;4.18;62.23
68656;BME280;55638;51.122;13.606;2023-04-20T00:37:27;100467.69;;;4.19;62.21
68656;BME280;55638;51.122;13.606;2023-04-20T00:38:59;100465.03;;;4.19;62.37
68656;BME280;55638;51.122;13.606;2023-04-20T00:40:32;100466.84;;;4.19;62.14
68656;BME280;55638;51.122;13.606;2023-04-20T00:42:08;100467.78;;;4.18;62.13
68656;BME280;55638;51.122;13.606;2023-04-20T00:43:52;100468.00;;;4.13;62.62
68656;BME280;55638;51.122;13.606;2023-04-20T00:45:24;100459.09;;;4.14;62.08
68656;BME280;55638;51.122;13.606;2023-04-20T00:46:56;100460.97;;;4.12;62.00
68656;BME280;55638;51.122;13.606;2023-04-20T00:48:29;100455.72;;;4.10;62.05
68656;BME280;55638;51.122;13.606;2023-04-20T00:50:01;100463.72;;;4.10;61.68
68656;BME280;55638;51.122;13.606;2023-04-20T00:51:34;100460.25;;;4.08;61.62
68656;BME280;55638;51.122;13.606;2023-04-20T00:53:09;100464.88;;;4.05;61.63
68656;BME280;55638;51.122;13.606;2023-04-20T00:54:41;100458.00;;;4.01;61.65
68656;BME280;55638;51.122;13.606;2023-04-20T00:56:14;100451.88;;;3.99;61.28
68656;BME280;55638;51.122;13.606;2023-04-20T00:57:47;100459.06;;;3.97;61.34
68656;BME280;55638;51.122;13.606;2023-04-20T00:59:20;100454.00;;;3.92;61.19
68656;BME280;55638;51.122;13.606;2023-04-20T01:00:52;100452.50;;;3.86;61.22
68656;BME280;55638;51.122;13.606;2023-04-20T01:02:24;100454.47;;;3.83;61.24
68656;BME280;55638;51.122;13.606;2023-04-20T01:03:57;100455.47;;;3.80;61.37
68656;BME280;55638;51.122;13.606;2023-04-20T01:05:29;100454.00;;;3.75;61.32
68656;BME280;55638;51.122;13.606;2023-04-20T01:07:01;100462.16;;;3.72;61.52
68656;BME280;55638;51.122;13.606;2023-04-20T01:08:33;100459.72;;;3.67;61.65
68656;BME280;55638;51.122;13.606;2023-04-20T01:10:08;100468.66;;;3.66;61.63
68656;BME280;55638;51.122;13.606;2023-04-20T01:11:43;100458.16;;;3.63;61.67
68656;BME280;55638;51.122;13.606;2023-04-20T01:13:19;100459.16;;;3.60;61.70
68656;BME280;55638;51.122;13.606;2023-04-20T01:14:51;100452.16;;;3.58;61.88
68656;BME280;55638;51.122;13.606;2023-04-20T01:16:23;100457.69;;;3.55;62.06
68656;BME280;55638;51.122;13.606;2023-04-20T01:17:55;100450.59;;;3.54;61.76
68656;BME280;55638;51.122;13.606;2023-04-20T01:19:28;100453.38;;;3.52;61.84
68656;BME280;55638;51.122;13.606;2023-04-20T01:21:00;100454.28;;;3.51;61.80
68656;BME280;55638;51.122;13.606;2023-04-20T01:22:32;100454.44;;;3.48;61.73
68656;BME280;55638;51.122;13.606;2023-04-20T01:24:04;100457.19;;;3.47;61.82
68656;BME280;55638;51.122;13.606;2023-04-20T01:25:36;100456.38;;;3.45;61.85
68656;BME280;55638;51.122;13.606;2023-04-20T01:27:08;100445.88;;;3.41;61.65
68656;BME280;55638;51.122;13.606;2023-04-20T01:28:40;100446.81;;;3.40;61.61
68656;BME280;55638;51.122;13.606;2023-04-20T01:30:13;100445.16;;;3.38;61.51
68656;BME280;55638;51.122;13.606;2023-04-20T01:31:45;100439.09;;;3.34;61.39
68656;BME280;55638;51.122;13.606;2023-04-20T01:33:17;100441.06;;;3.31;61.40
68656;BME280;55638;51.122;13.606;2023-04-20T01:34:49;100440.34;;;3.27;61.28
68656;BME280;55638;51.122;13.606;2023-04-20T01:36:21;100443.09;;;3.26;61.12
68656;BME280;55638;51.122;13.606;2023-04-20T01:37:52;100447.78;;;3.20;61.27
68656;BME280;55638;51.122;13.606;2023-04-20T01:39:24;100441.75;;;3.17;61.18
68656;BME280;55638;51.122;13.606;2023-04-20T01:40:58;100441.09;;;3.12;61.15
68656;BME280;55638;51.122;13.606;2023-04-20T01:42:31;100441.31;;;3.07;61.22
68656;BME280;55638;51.122;13.606;2023-04-20T01:44:03;100438.91;;;3.03;61.32
68656;BME280;55638;51.122;13.606;2023-04-20T01:45:34;100439.09;;;2.98;61.58
68656;BME280;55638;51.122;13.606;2023-04-20T01:47:06;100441.06;;;2.94;61.49
68656;BME280;55638;51.122;13.606;2023-04-20T01:48:38;100441.19;;;2.91;61.70
68656;BME280;55638;51.122;13.606;2023-04-20T01:50:10;100437.88;;;2.86;62.05
68656;BME280;55638;51.122;13.606;2023-04-20T01:51:42;100433.50;;;2.85;62.18
68656;BME280;55638;51.122;13.606;2023-04-20T01:53:14;100441.47;;;2.85;61.99
68656;BME280;55638;51.122;13.606;2023-04-20T01:54:46;100442.56;;;2.81;62.17
68656;BME280;55638;51.122;13.606;2023-04-20T01:56:18;100440.84;;;2.80;62.14
68656;BME280;55638;51.122;13.606;2023-04-20T01:57:49;100436.53;;;2.78;61.98
68656;BME280;55638;51.122;13.606;2023-04-20T01:59:21;100439.34;;;2.75;62.28
68656;BME280;55638;51.122;13.606;2023-04-20T02:00:53;100436.72;;;2.73;62.19
68656;BME280;55638;51.122;13.606;2023-04-20T02:02:25;100434.22;;;2.70;61.95
68656;BME280;55638;51.122;13.606;2023-04-20T02:03:57;100434.22;;;2.70;62.08
68656;BME280;55638;51.122;13.606;2023-04-20T02:05:29;100434.34;;;2.67;62.02
68656;BME280;55638;51.122;13.606;2023-04-20T02:07:01;100437.09;;;2.65;62.13
68656;BME280;55638;51.122;13.606;2023-04-20T02:08:33;100427.44;;;2.63;61.98
68656;BME280;55638;51.122;13.606;2023-04-20T02:10:05;100436.53;;;2.59;62.20
68656;BME280;55638;51.122;13.606;2023-04-20T02:11:37;100437.53;;;2.56;62.26
68656;BME280;55638;51.122;13.606;2023-04-20T02:13:11;100429.69;;;2.53;62.02
68656;BME280;55638;51.122;13.606;2023-04-20T02:14:42;100435.09;;;2.52;61.76
68656;BME280;55638;51.122;13.606;2023-04-20T02:16:14;100423.78;;;2.46;61.98
68656;BME280;55638;51.122;13.606;2023-04-20T02:17:46;100431.03;;;2.43;61.92
68656;BME280;55638;51.122;13.606;2023-04-20T02:19:23;100425.94;;;2.38;61.91
68656;BME280;55638;51.122;13.606;2023-04-20T02:20:55;100423.34;;;2.37;62.08
68656;BME280;55638;51.122;13.606;2023-04-20T02:22:27;100427.94;;;2.33;62.14
68656;BME280;55638;51.122;13.606;2023-04-20T02:23:59;100429.00;;;2.29;62.16
68656;BME280;55638;51.122;13.606;2023-04-20T02:25:32;100435.41;;;2.25;62.09
68656;BME280;55638;51.122;13.606;2023-04-20T02:27:04;100437.28;;;2.23;61.88
68656;BME280;55638;51.122;13.606;2023-04-20T02:28:36;100437.50;;;2.18;62.08
68656;BME280;55638;51.122;13.606;2023-04-20T02:30:08;100434.06;;;2.15;61.73
68656;BME280;55638;51.122;13.606;2023-04-20T02:31:41;100447.53;;;2.12;61.78
68656;BME280;55638;51.122;13.606;2023-04-20T02:33:13;100455.66;;;2.09;61.84
68656;BME280;55638;51.122;13.606;2023-04-20T02:34:44;100452.22;;;2.05;61.96
68656;BME280;55638;51.122;13.606;2023-04-20T02:36:16;100441.75;;;2.02;62.16
68656;BME280;55638;51.122;13.606;2023-04-20T02:37:48;100446.31;;;1.98;62.56
68656;BME280;55638;51.122;13.606;2023-04-20T02:39:20;100444.81;;;1.93;62.61
68656;BME280;55638;51.122;13.606;2023-04-20T02:40:52;100449.31;;;1.91;62.79
68656;BME280;55638;51.122;13.606;2023-04-20T02:42:24;100445.84;;;1.89;62.58
68656;BME280;55638;51.122;13.606;2023-04-20T02:43:57;100451.19;;;1.89;62.29
68656;BME280;55638;51.122;13.606;2023-04-20T02:45:31;100455.72;;;1.87;62.59
68656;BME280;55638;51.122;13.606;2023-04-20T02:47:04;100452.38;;;1.82;62.52
68656;BME280;55638;51.122;13.606;2023-04-20T02:48:35;100457.78;;;1.80;62.62
68656;BME280;55638;51.122;13.606;2023-04-20T02:50:08;100440.06;;;1.79;62.73
68656;BME280;55638;51.122;13.606;2023-04-20T02:51:55;100445.38;;;1.79;62.93
68656;BME280;55638;51.122;13.606;2023-04-20T02:53:28;100440.06;;;1.79;62.96
68656;BME280;55638;51.122;13.606;2023-04-20T02:55:13;100445.38;;;1.79;62.91
68656;BME280;55638;51.122;13.606;2023-04-20T02:56:48;100441.97;;;1.77;63.07
68656;BME280;55638;51.122;13.606;2023-04-20T02:58:20;100443.63;;;1.79;62.93
68656;BME280;55638;51.122;13.606;2023-04-20T03:00:19;100442.81;;;1.77;62.76
68656;BME280;55638;51.122;13.606;2023-04-20T03:02:03;100449.94;;;1.77;63.00
68656;BME280;55638;51.122;13.606;2023-04-20T03:03:36;100444.63;;;1.77;62.63
68656;BME280;55638;51.122;13.606;2023-04-20T03:05:11;100442.00;;;1.75;62.78
68656;BME280;55638;51.122;13.606;2023-04-20T03:06:50;100442.94;;;1.74;62.92
68656;BME280;55638;51.122;13.606;2023-04-20T03:08:28;100443.03;;;1.73;62.90
68656;BME280;55638;51.122;13.606;2023-04-20T03:10:04;100438.63;;;1.72;62.89
68656;BME280;55638;51.122;13.606;2023-04-20T03:12:02;100443.88;;;1.73;62.92
68656;BME280;55638;51.122;13.606;2023-04-20T03:14:00;100447.53;;;1.71;62.67
68656;BME280;55638;51.122;13.606;2023-04-20T03:15:32;100452.03;;;1.69;62.77
68656;BME280;55638;51.122;13.606;2023-04-20T03:17:15;100449.38;;;1.69;62.67
68656;BME280;55638;51.122;13.606;2023-04-20T03:18:48;100458.28;;;1.68;62.78
68656;BME280;55638;51.122;13.606;2023-04-20T03:20:20;100462.78;;;1.66;62.84
68656;BME280;55638;51.122;13.606;2023-04-20T03:21:51;100459.34;;;1.64;62.76
68656;BME280;55638;51.122;13.606;2023-04-20T03:23:23;100462.91;;;1.63;62.83
68656;BME280;55638;51.122;13.606;2023-04-20T03:24:56;100469.28;;;1.59;62.77
68656;BME280;55638;51.122;13.606;2023-04-20T03:26:50;100468.44;;;1.58;62.94
68656;BME280;55638;51.122;13.606;2023-04-20T03:28:28;100462.31;;;1.56;63.23
68656;BME280;55638;51.122;13.606;2023-04-20T03:30:00;100467.72;;;1.54;63.51
68656;BME280;55638;51.122;13.606;2023-04-20T03:31:33;100468.66;;;1.53;63.52
68656;BME280;55638;51.122;13.606;2023-04-20T03:33:06;100469.50;;;1.54;63.75
68656;BME280;55638;51.122;13.606;2023-04-20T03:34:38;100463.38;;;1.52;63.81
68656;BME280;55638;51.122;13.606;2023-04-20T03:36:10;100476.53;;;1.55;63.74
68656;BME280;55638;51.122;13.606;2023-04-20T03:37:42;100473.88;;;1.55;63.79
68656;BME280;55638;51.122;13.606;2023-04-20T03:39:14;100477.41;;;1.55;63.73
68656;BME280;55638;51.122;13.606;2023-04-20T03:40:46;100475.56;;;1.58;63.64
68656;BME280;55638;51.122;13.606;2023-04-20T03:42:19;100484.38;;;1.58;63.88
68656;BME280;55638;51.122;13.606;2023-04-20T03:43:52;100473.63;;;1.61;63.70
68656;BME280;55638;51.122;13.606;2023-04-20T03:45:24;100481.47;;;1.64;63.88
68656;BME280;55638;51.122;13.606;2023-04-20T03:46:56;100489.31;;;1.67;63.71
68656;BME280;55638;51.122;13.606;2023-04-20T03:48:28;100484.88;;;1.68;63.60
68656;BME280;55638;51.122;13.606;2023-04-20T03:49:59;100483.94;;;1.69;63.59
68656;BME280;55638;51.122;13.606;2023-04-20T03:51:32;100483.00;;;1.70;63.72
68656;BME280;55638;51.122;13.606;2023-04-20T03:53:03;100483.00;;;1.70;63.89
68656;BME280;55638;51.122;13.606;2023-04-20T03:54:35;100484.66;;;1.72;63.89
68656;BME280;55638;51.122;13.606;2023-04-20T03:56:07;100480.16;;;1.74;63.76
68656;BME280;55638;51.122;13.606;2023-04-20T03:57:39;100490.78;;;1.74;64.02
68656;BME280;55638;51.122;13.606;2023-04-20T03:59:11;100481.88;;;1.75;63.95
68656;BME280;55638;51.122;13.606;2023-04-20T04:00:46;100480.88;;;1.78;64.01
68656;BME280;55638;51.122;13.606;2023-04-20T04:02:18;100481.69;;;1.80;64.19
68656;BME280;55638;51.122;13.606;2023-04-20T04:03:53;100490.44;;;1.82;64.37
68656;BME280;55638;51.122;13.606;2023-04-20T04:05:26;100485.94;;;1.84;64.21
68656;BME280;55638;51.122;13.606;2023-04-20T04:06:58;100482.31;;;1.87;64.30
68656;BME280;55638;51.122;13.606;2023-04-20T04:08:30;100494.59;;;1.89;64.24
68656;BME280;55638;51.122;13.606;2023-04-20T04:10:03;100482.09;;;1.91;64.33
68656;BME280;55638;51.122;13.606;2023-04-20T04:11:37;100487.28;;;1.94;64.10
68656;BME280;55638;51.122;13.606;2023-04-20T04:13:09;100487.16;;;1.97;64.12
68656;BME280;55638;51.122;13.606;2023-04-20T04:14:41;100479.00;;;2.02;63.88
68656;BME280;55638;51.122;13.606;2023-04-20T04:16:14;100485.03;;;2.06;63.56
68656;BME280;55638;51.122;13.606;2023-04-20T04:17:47;100478.78;;;2.07;63.61
68656;BME280;55638;51.122;13.606;2023-04-20T04:19:19;100480.56;;;2.06;63.44
68656;BME280;55638;51.122;13.606;2023-04-20T04:20:51;100487.59;;;2.07;63.44
68656;BME280;55638;51.122;13.606;2023-04-20T04:22:23;100479.63;;;2.07;63.35
68656;BME280;55638;51.122;13.606;2023-04-20T04:24:15;100477.91;;;2.06;63.34
68656;BME280;55638;51.122;13.606;2023-04-20T04:26:23;100485.03;;;2.06;63.56
68656;BME280;55638;51.122;13.606;2023-04-20T04:27:56;100486.75;;;2.07;63.56
68656;BME280;55638;51.122;13.606;2023-04-20T04:29:30;100494.72;;;2.07;63.61
68656;BME280;55638;51.122;13.606;2023-04-20T04:31:07;100490.34;;;2.06;63.50
68656;BME280;55638;51.122;13.606;2023-04-20T04:32:40;100499.19;;;2.06;63.58
68656;BME280;55638;51.122;13.606;2023-04-20T04:34:13;100496.56;;;2.05;63.45
68656;BME280;55638;51.122;13.606;2023-04-20T04:35:50;100499.22;;;2.05;63.57
68656;BME280;55638;51.122;13.606;2023-04-20T04:37:24;100501.00;;;2.06;63.48
68656;BME280;55638;51.122;13.606;2023-04-20T04:39:00;100500.25;;;2.02;63.70
68656;BME280;55638;51.122;13.606;2023-04-20T04:40:32;100499.31;;;2.03;63.51
68656;BME280;55638;51.122;13.606;2023-04-20T04:42:06;100499.22;;;2.05;63.60
68656;BME280;55638;51.122;13.606;2023-04-20T04:43:44;100501.91;;;2.05;63.55
68656;BME280;55638;51.122;13.606;2023-04-20T04:45:27;100503.69;;;2.04;63.74
68656;BME280;55638;51.122;13.606;2023-04-20T04:47:02;100507.28;;;2.03;63.81
68656;BME280;55638;51.122;13.606;2023-04-20T04:48:34;100507.22;;;2.05;63.99
68656;BME280;55638;51.122;13.606;2023-04-20T04:50:08;100503.66;;;2.06;64.11
68656;BME280;55638;51.122;13.606;2023-04-20T04:51:41;100505.38;;;2.07;63.97
68656;BME280;55638;51.122;13.606;2023-04-20T04:53:13;100499.09;;;2.08;64.03
68656;BME280;55638;51.122;13.606;2023-04-20T04:54:44;100499.97;;;2.08;63.92
68656;BME280;55638;51.122;13.606;2023-04-20T04:56:16;100498.97;;;2.11;63.76
68656;BME280;55638;51.122;13.606;2023-04-20T04:57:49;100505.09;;;2.13;63.85
68656;BME280;55638;51.122;13.606;2023-04-20T04:59:21;100505.09;;;2.13;63.72
68656;BME280;55638;51.122;13.606;2023-04-20T05:00:52;100504.13;;;2.15;63.79
68656;BME280;55638;51.122;13.606;2023-04-20T05:02:24;100505.88;;;2.15;63.76
68656;BME280;55638;51.122;13.606;2023-04-20T05:03:57;100501.50;;;2.14;63.69
68656;BME280;55638;51.122;13.606;2023-04-20T05:05:29;100500.56;;;2.15;63.82
68656;BME280;55638;51.122;13.606;2023-04-20T05:07:01;100507.63;;;2.16;63.81
68656;BME280;55638;51.122;13.606;2023-04-20T05:08:33;100501.31;;;2.18;64.10
68656;BME280;55638;51.122;13.606;2023-04-20T05:10:06;100510.03;;;2.22;63.91
68656;BME280;55638;51.122;13.606;2023-04-20T05:11:38;100510.03;;;2.22;63.84
68656;BME280;55638;51.122;13.606;2023-04-20T05:13:10;100515.22;;;2.25;63.59
68656;BME280;55638;51.122;13.606;2023-04-20T05:14:42;100523.84;;;2.30;63.42
68656;BME280;55638;51.122;13.606;2023-04-20T05:16:13;100519.47;;;2.29;63.46
68656;BME280;55638;51.122;13.606;2023-04-20T05:17:46;100520.31;;;2.30;63.86
68656;BME280;55638;51.122;13.606;2023-04-20T05:19:20;100515.84;;;2.30;63.85
68656;BME280;55638;51.122;13.606;2023-04-20T05:20:52;100522.91;;;2.31;64.08
68656;BME280;55638;51.122;13.606;2023-04-20T05:22:24;100526.38;;;2.33;64.06
68656;BME280;55638;51.122;13.606;2023-04-20T05:23:56;100528.75;;;2.39;64.07
68656;BME280;55638;51.122;13.606;2023-04-20T05:25:28;100534.91;;;2.41;63.79
68656;BME280;55638;51.122;13.606;2023-04-20T05:27:00;100534.91;;;2.41;64.01
68656;BME280;55638;51.122;13.606;2023-04-20T05:28:33;100541.00;;;2.43;63.83
68656;BME280;55638;51.122;13.606;2023-04-20T05:30:06;100547.03;;;2.47;64.01
68656;BME280;55638;51.122;13.606;2023-04-20T05:31:52;100542.53;;;2.49;63.86
68656;BME280;55638;51.122;13.606;2023-04-20T05:33:23;100539.72;;;2.52;64.04
68656;BME280;55638;51.122;13.606;2023-04-20T05:34:55;100553.75;;;2.56;64.06
68656;BME280;55638;51.122;13.606;2023-04-20T05:36:28;100546.59;;;2.58;63.87
68656;BME280;55638;51.122;13.606;2023-04-20T05:38:01;100545.56;;;2.60;63.97
68656;BME280;55638;51.122;13.606;2023-04-20T05:39:36;100548.09;;;2.63;64.20
68656;BME280;55638;51.122;13.606;2023-04-20T05:41:08;100545.22;;;2.68;64.18
68656;BME280;55638;51.122;13.606;2023-04-20T05:42:40;100539.78;;;2.71;64.08
68656;BME280;55638;51.122;13.606;2023-04-20T05:44:12;100552.94;;;2.74;64.25
68656;BME280;55638;51.122;13.606;2023-04-20T05:45:45;100548.41;;;2.76;64.17
68656;BME280;55638;51.122;13.606;2023-04-20T05:47:17;100541.13;;;2.80;64.15
68656;BME280;55638;51.122;13.606;2023-04-20T05:48:49;100545.47;;;2.82;64.01
68656;BME280;55638;51.122;13.606;2023-04-20T05:50:22;100551.44;;;2.87;64.11
68656;BME280;55638;51.122;13.606;2023-04-20T05:51:54;100554.88;;;2.89;63.86
68656;BME280;55638;51.122;13.606;2023-04-20T05:53:26;100552.16;;;2.91;63.73
68656;BME280;55638;51.122;13.606;2023-04-20T05:54:58;100554.84;;;2.91;63.71
68656;BME280;55638;51.122;13.606;2023-04-20T05:56:30;100557.28;;;2.95;63.25
68656;BME280;55638;51.122;13.606;2023-04-20T05:58:02;100552.88;;;2.94;63.03
68656;BME280;55638;51.122;13.606;2023-04-20T05:59:34;100551.16;;;2.93;62.95
68656;BME280;55638;51.122;13.606;2023-04-20T06:01:06;100551.09;;;2.95;63.03
68656;BME280;55638;51.122;13.606;2023-04-20T06:02:38;100557.28;;;2.95;62.90
68656;BME280;55638;51.122;13.606;2023-04-20T06:04:11;100557.28;;;2.95;62.88
68656;BME280;55638;51.122;13.606;2023-04-20T06:05:43;100559.16;;;2.93;62.90
68656;BME280;55638;51.122;13.606;2023-04-20T06:07:15;100556.50;;;2.93;63.07
68656;BME280;55638;51.122;13.606;2023-04-20T06:08:48;100559.31;;;2.90;63.01
68656;BME280;55638;51.122;13.606;2023-04-20T06:10:21;100554.88;;;2.89;62.86
68656;BME280;55638;51.122;13.606;2023-04-20T06:11:53;100551.31;;;2.90;63.14
68656;BME280;55638;51.122;13.606;2023-04-20T06:13:25;100553.13;;;2.90;63.06
68656;BME280;55638;51.122;13.606;2023-04-20T06:14:57;100552.22;;;2.89;63.36
68656;BME280;55638;51.122;13.606;2023-04-20T06:16:29;100553.03;;;2.91;63.61
68656;BME280;55638;51.122;13.606;2023-04-20T06:18:01;100550.31;;;2.93;63.65
68656;BME280;55638;51.122;13.606;2023-04-20T06:19:33;100544.91;;;2.94;63.92
68656;BME280;55638;51.122;13.606;2023-04-20T06:21:08;100543.81;;;2.99;63.63
68656;BME280;55638;51.122;13.606;2023-04-20T06:22:43;100548.09;;;3.03;63.96
68656;BME280;55638;51.122;13.606;2023-04-20T06:24:15;100554.06;;;3.08;64.11
68656;BME280;55638;51.122;13.606;2023-04-20T06:25:47;100548.50;;;3.12;64.53
68656;BME280;55638;51.122;13.606;2023-04-20T06:27:19;100551.75;;;3.19;64.53
68656;BME280;55638;51.122;13.606;2023-04-20T06:28:51;100552.25;;;3.27;64.21
68656;BME280;55638;51.122;13.606;2023-04-20T06:30:23;100553.69;;;3.34;63.92
68656;BME280;55638;51.122;13.606;2023-04-20T06:31:55;100552.69;;;3.37;63.63
68656;BME280;55638;51.122;13.606;2023-04-20T06:33:27;100552.41;;;3.43;63.64
68656;BME280;55638;51.122;13.606;2023-04-20T06:34:59;100547.81;;;3.47;63.77
68656;BME280;55638;51.122;13.606;2023-04-20T06:36:31;100546.72;;;3.51;63.77
68656;BME280;55638;51.122;13.606;2023-04-20T06:38:03;100550.97;;;3.55;63.91
68656;BME280;55638;51.122;13.606;2023-04-20T06:39:35;100548.94;;;3.60;63.85
68656;BME280;55638;51.122;13.606;2023-04-20T06:41:07;100549.59;;;3.65;63.98
68656;BME280;55638;51.122;13.606;2023-04-20T06:42:39;100545.81;;;3.69;64.19
68656;BME280;55638;51.122;13.606;2023-04-20T06:44:11;100541.13;;;3.74;64.30
68656;BME280;55638;51.122;13.606;2023-04-20T06:45:43;100543.47;;;3.80;64.21
68656;BME280;55638;51.122;13.606;2023-04-20T06:47:15;100551.13;;;3.88;64.44
68656;BME280;55638;51.122;13.606;2023-04-20T06:48:46;100557.78;;;3.97;64.54
68656;BME280;55638;51.122;13.606;2023-04-20T06:50:18;100558.25;;;4.05;64.76
68656;BME280;55638;51.122;13.606;2023-04-20T06:51:50;100555.19;;;4.12;64.63
68656;BME280;55638;51.122;13.606;2023-04-20T06:53:22;100545.00;;;4.21;64.34
68656;BME280;55638;51.122;13.606;2023-04-20T06:54:56;100548.13;;;4.29;63.70
68656;BME280;55638;51.122;13.606;2023-04-20T06:56:28;100546.78;;;4.38;63.75
68656;BME280;55638;51.122;13.606;2023-04-20T06:58:00;100542.00;;;4.44;63.59
68656;BME280;55638;51.122;13.606;2023-04-20T06:59:32;100550.66;;;4.49;63.63
68656;BME280;55638;51.122;13.606;2023-04-20T07:01:04;100552.09;;;4.55;63.35
68656;BME280;55638;51.122;13.606;2023-04-20T07:02:49;100554.63;;;4.58;62.45
68656;BME280;55638;51.122;13.606;2023-04-20T07:04:21;100544.47;;;4.65;63.02
68656;BME280;55638;51.122;13.606;2023-04-20T07:05:53;100545.16;;;4.68;62.99
68656;BME280;55638;51.122;13.606;2023-04-20T07:07:25;100547.69;;;4.71;62.77
68656;BME280;55638;51.122;13.606;2023-04-20T07:08:57;100548.31;;;4.76;62.48
68656;BME280;55638;51.122;13.606;2023-04-20T07:10:28;100541.09;;;4.78;62.16
68656;BME280;55638;51.122;13.606;2023-04-20T07:12:00;100546.25;;;4.81;62.06
68656;BME280;55638;51.122;13.606;2023-04-20T07:13:33;100546.06;;;4.84;61.46
68656;BME280;55638;51.122;13.606;2023-04-20T07:15:06;100551.50;;;4.83;61.34
68656;BME280;55638;51.122;13.606;2023-04-20T07:16:38;100541.84;;;4.80;61.43
68656;BME280;55638;51.122;13.606;2023-04-20T07:18:10;100543.59;;;4.81;61.54
68656;BME280;55638;51.122;13.606;2023-04-20T07:19:42;100552.53;;;4.80;61.17
68656;BME280;55638;51.122;13.606;2023-04-20T07:21:14;100545.47;;;4.79;61.04
68656;BME280;55638;51.122;13.606;2023-04-20T07:22:46;100553.56;;;4.78;60.88
68656;BME280;55638;51.122;13.606;2023-04-20T07:24:18;100555.53;;;4.74;61.26
68656;BME280;55638;51.122;13.606;2023-04-20T07:25:51;100552.94;;;4.73;61.29
68656;BME280;55638;51.122;13.606;2023-04-20T07:27:22;100561.03;;;4.71;61.45
68656;BME280;55638;51.122;13.606;2023-04-20T07:28:54;100562.94;;;4.69;61.84
68656;BME280;55638;51.122;13.606;2023-04-20T07:30:26;100564.66;;;4.70;61.86
68656;BME280;55638;51.122;13.606;2023-04-20T07:31:58;100563.00;;;4.68;62.05
68656;BME280;55638;51.122;13.606;2023-04-20T07:33:30;100556.75;;;4.69;62.18
68656;BME280;55638;51.122;13.606;2023-04-20T07:35:03;100563.78;;;4.70;62.36
68656;BME280;55638;51.122;13.606;2023-04-20T07:36:36;100562.78;;;4.72;62.39
68656;BME280;55638;51.122;13.606;2023-04-20T07:38:09;100567.06;;;4.75;62.54
68656;BME280;55638;51.122;13.606;2023-04-20T07:39:41;100569.56;;;4.78;62.55
68656;BME280;55638;51.122;13.606;2023-04-20T07:41:14;100561.41;;;4.81;62.31
68656;BME280;55638;51.122;13.606;2023-04-20T07:42:46;100558.56;;;4.84;62.38
68656;BME280;55638;51.122;13.606;2023-04-20T07:44:18;100553.16;;;4.86;62.32
68656;BME280;55638;51.122;13.606;2023-04-20T07:45:49;100562.66;;;4.91;61.85
68656;BME280;55638;51.122;13.606;2023-04-20T07:47:21;100559.88;;;4.93;62.04
68656;BME280;55638;51.122;13.606;2023-04-20T07:48:54;100552.66;;;4.95;62.33
68656;BME280;55638;51.122;13.606;2023-04-20T07:50:26;100563.19;;;4.98;62.33
68656;BME280;55638;51.122;13.606;2023-04-20T07:51:58;100556.88;;;4.99;62.34
68656;BME280;55638;51.122;13.606;2023-04-20T07:53:46;100563.78;;;5.03;62.42
68656;BME280;55638;51.122;13.606;2023-04-20T07:55:17;100560.00;;;5.07;62.46
68656;BME280;55638;51.122;13.606;2023-04-20T07:56:49;100566.97;;;5.10;62.40
68656;BME280;55638;51.122;13.606;2023-04-20T07:58:21;100570.44;;;5.12;62.25
68656;BME280;55638;51.122;13.606;2023-04-20T07:59:53;100562.25;;;5.15;62.58
68656;BME280;55638;51.122;13.606;2023-04-20T08:01:25;100564.84;;;5.16;62.39
68656;BME280;55638;51.122;13.606;2023-04-20T08:02:57;100563.72;;;5.20;62.67
68656;BME280;55638;51.122;13.606;2023-04-20T08:04:30;100564.44;;;5.24;62.64
68656;BME280;55638;51.122;13.606;2023-04-20T08:06:02;100557.91;;;5.29;62.69
68656;BME280;55638;51.122;13.606;2023-04-20T08:07:34;100564.81;;;5.34;62.66